Time;durP1;ratioP1;P1;durP2;ratioP2;P2;SDS_P1;SDS_P2;PMS_P1;PMS_P2;Temp;Humidity;BMP_temperature;BMP_pressure;BME280_temperature;BME280_humidity;BME280_pressure;Samples;Min_cycle;Max_cycle;Signal;HPM_P1;HPM_P2
2021/11/24 00:00:47;;;;;;;47.47;23.37;;;3.50;99.90;;;;;;5093687;28;20678;-80
2021/11/24 00:03:13;;;;;;;50.00;24.70;;;3.50;99.90;;;;;;5093946;28;20565;-81
2021/11/24 00:05:39;;;;;;;55.37;22.93;;;3.50;99.90;;;;;;5094101;28;20173;-81
2021/11/24 00:08:05;;;;;;;50.53;23.57;;;3.40;99.90;;;;;;5092174;28;20626;-81
2021/11/24 00:10:34;;;;;;;42.47;20.70;;;3.50;99.90;;;;;;5093611;28;20186;-82
2021/11/24 00:13:00;;;;;;;47.73;22.63;;;4.00;99.90;;;;;;5093551;28;20174;-81
2021/11/24 00:15:26;;;;;;;45.20;22.87;;;3.50;99.90;;;;;;5093567;28;20184;-80
2021/11/24 00:17:52;;;;;;;46.30;22.70;;;3.50;99.90;;;;;;5093792;28;20177;-84
2021/11/24 00:20:18;;;;;;;48.00;21.63;;;3.50;99.90;;;;;;5093228;28;20672;-81
2021/11/24 00:22:44;;;;;;;51.77;24.17;;;3.50;99.90;;;;;;5094047;28;20187;-80
2021/11/24 00:25:10;;;;;;;56.30;23.50;;;3.50;99.90;;;;;;5094474;28;20701;-80
2021/11/24 00:27:36;;;;;;;48.97;23.27;;;3.50;99.90;;;;;;5094595;28;20231;-80
2021/11/24 00:30:04;;;;;;;53.20;23.17;;;3.50;99.90;;;;;;5095345;28;20182;-81
2021/11/24 00:32:31;;;;;;;49.33;23.00;;;3.50;99.90;;;;;;5095606;28;20309;-80
2021/11/24 00:34:57;;;;;;;51.17;21.80;;;3.50;99.90;;;;;;5094814;28;20309;-80
2021/11/24 00:37:23;;;;;;;50.50;23.60;;;3.50;99.90;;;;;;5076749;28;20655;-80
2021/11/24 00:39:49;;;;;;;45.77;22.80;;;3.50;99.90;;;;;;5093785;28;20206;-80
2021/11/24 00:42:16;;;;;;;52.40;23.77;;;3.50;99.90;;;;;;5093973;28;20178;-79
2021/11/24 00:44:42;;;;;;;44.50;23.37;;;3.50;99.90;;;;;;5093618;28;20177;-80
2021/11/24 00:47:08;;;;;;;50.77;24.13;;;3.40;99.90;;;;;;5093909;28;20624;-81
2021/11/24 00:49:39;;;;;;;45.73;22.50;;;3.40;99.90;;;;;;5093485;28;20319;-80
2021/11/24 00:52:06;;;;;;;46.47;21.30;;;3.40;99.90;;;;;;5095586;28;20182;-80
2021/11/24 00:54:32;;;;;;;40.23;20.57;;;3.40;99.90;;;;;;5097392;28;20206;-80
2021/11/24 00:56:57;;;;;;;46.43;22.40;;;3.30;99.90;;;;;;5079075;28;20218;-80
2021/11/24 00:59:23;;;;;;;34.60;16.50;;;3.30;99.90;;;;;;5097053;28;20182;-80
2021/11/24 01:01:49;;;;;;;42.80;21.93;;;3.40;99.90;;;;;;5097063;28;20724;-80
2021/11/24 01:04:14;;;;;;;41.30;20.23;;;3.30;99.90;;;;;;5096634;28;20177;-81
2021/11/24 01:06:40;;;;;;;43.50;20.47;;;3.30;99.90;;;;;;5097487;28;20179;-81
2021/11/24 01:09:06;;;;;;;44.10;20.07;;;3.30;99.90;;;;;;5096783;28;20730;-80
2021/11/24 01:11:32;;;;;;;31.60;16.43;;;3.30;99.90;;;;;;5098111;28;20178;-80
2021/11/24 01:13:58;;;;;;;42.67;19.27;;;3.30;99.90;;;;;;5097729;28;20185;-79
2021/11/24 01:16:24;;;;;;;38.63;19.60;;;3.30;99.90;;;;;;5100078;28;20176;-80
2021/11/24 01:18:50;;;;;;;46.43;20.20;;;3.30;99.90;;;;;;5078456;28;20549;-80
2021/11/24 01:21:16;;;;;;;38.53;19.57;;;3.40;99.90;;;;;;5097133;28;20206;-80
2021/11/24 01:23:43;;;;;;;44.23;21.30;;;3.40;99.90;;;;;;5096708;28;20191;-80
2021/11/24 01:26:09;;;;;;;37.53;17.90;;;3.40;99.90;;;;;;5096549;28;20236;-80
2021/11/24 01:28:35;;;;;;;40.60;20.33;;;3.40;99.90;;;;;;5095622;28;20183;-80
2021/11/24 01:31:01;;;;;;;41.73;19.10;;;3.40;99.90;;;;;;5097764;28;20193;-79
2021/11/24 01:33:26;;;;;;;44.83;20.80;;;3.50;99.90;;;;;;5101804;28;20170;-78
2021/11/24 01:35:52;;;;;;;44.23;20.83;;;3.50;99.90;;;;;;5095402;28;20529;-79
2021/11/24 01:38:18;;;;;;;39.33;20.83;;;3.50;99.90;;;;;;5096299;28;20254;-78
2021/11/24 01:40:44;;;;;;;42.40;20.77;;;3.40;99.90;;;;;;5096568;28;20214;-80
2021/11/24 01:43:10;;;;;;;38.13;20.77;;;3.50;99.90;;;;;;5098790;28;20181;-80
2021/11/24 01:45:37;;;;;;;42.43;21.23;;;3.50;99.90;;;;;;5078130;28;20182;-80
2021/11/24 01:48:03;;;;;;;46.03;20.70;;;3.50;99.90;;;;;;5097244;28;20275;-79
2021/11/24 01:50:28;;;;;;;46.33;20.67;;;3.60;99.90;;;;;;5096175;28;20274;-80
2021/11/24 01:52:54;;;;;;;41.40;21.00;;;3.50;99.90;;;;;;5096946;28;20180;-79
2021/11/24 01:55:21;;;;;;;45.07;22.17;;;3.50;99.90;;;;;;5095146;28;20179;-80
2021/11/24 01:57:49;;;;;;;44.67;20.07;;;3.60;99.90;;;;;;5097163;28;20263;-81
2021/11/24 02:00:22;;;;;;;53.60;22.50;;;3.50;99.90;;;;;;5096142;28;20206;-80
2021/11/24 02:02:48;;;;;;;44.80;20.80;;;3.50;99.90;;;;;;5094653;28;20599;-79
2021/11/24 02:05:13;;;;;;;46.97;21.60;;;3.60;99.90;;;;;;5095927;28;20218;-80
2021/11/24 02:07:40;;;;;;;45.40;21.37;;;3.60;99.90;;;;;;5095457;28;20270;-80
2021/11/24 02:10:06;;;;;;;41.70;19.53;;;3.50;99.90;;;;;;5096279;28;20217;-79
2021/11/24 02:12:32;;;;;;;43.37;21.03;;;3.50;99.90;;;;;;5096067;28;20219;-81
2021/11/24 02:14:57;;;;;;;46.43;21.43;;;3.50;99.90;;;;;;5096140;28;20191;-80
2021/11/24 02:17:23;;;;;;;45.27;20.47;;;3.60;99.90;;;;;;5097093;28;20177;-80
2021/11/24 02:19:49;;;;;;;44.60;20.80;;;3.60;99.90;;;;;;5096328;28;20245;-80
2021/11/24 02:22:15;;;;;;;47.40;20.03;;;3.60;99.90;;;;;;5096089;28;20653;-80
2021/11/24 02:24:41;;;;;;;41.43;19.70;;;3.60;99.90;;;;;;5095516;28;20179;-80
2021/11/24 02:27:09;;;;;;;38.17;20.17;;;3.60;99.90;;;;;;5095797;28;20185;-80
2021/11/24 02:29:35;;;;;;;42.07;20.87;;;3.60;99.90;;;;;;5095837;28;20642;-78
2021/11/24 02:32:03;;;;;;;42.17;19.33;;;3.60;99.90;;;;;;5097171;28;20639;-80
2021/11/24 02:34:30;;;;;;;42.73;19.63;;;3.60;99.90;;;;;;5097133;28;20181;-81
2021/11/24 02:36:57;;;;;;;44.40;19.73;;;3.70;99.90;;;;;;5097149;28;20219;-80
2021/11/24 02:39:24;;;;;;;39.63;19.60;;;3.70;99.90;;;;;;5095968;28;20206;-80
2021/11/24 02:41:49;;;;;;;41.80;20.30;;;3.70;99.90;;;;;;5097149;28;20218;-80
2021/11/24 02:44:23;;;;;;;38.73;19.77;;;3.70;99.90;;;;;;5097641;28;20633;-80
2021/11/24 02:46:50;;;;;;;37.00;17.70;;;3.60;99.90;;;;;;5095722;28;20176;-79
2021/11/24 02:49:16;;;;;;;39.00;20.43;;;3.60;99.90;;;;;;5094642;28;20214;-81
2021/11/24 02:51:43;;;;;;;37.83;19.20;;;3.60;99.90;;;;;;5095881;28;20650;-80
2021/11/24 02:54:10;;;;;;;38.10;17.37;;;3.70;99.90;;;;;;5096546;28;20184;-79
2021/11/24 02:56:36;;;;;;;37.53;18.83;;;3.70;99.90;;;;;;5094215;28;20310;-80
2021/11/24 02:59:02;;;;;;;37.87;20.03;;;3.50;99.90;;;;;;5095190;28;20175;-81
2021/11/24 03:01:29;;;;;;;39.97;19.60;;;3.70;99.90;;;;;;5093383;28;20308;-80
2021/11/24 03:03:54;;;;;;;42.77;19.30;;;3.70;99.90;;;;;;5094674;28;20212;-81
2021/11/24 03:06:20;;;;;;;41.03;20.33;;;3.60;99.90;;;;;;5099923;28;20702;-79
2021/11/24 03:08:46;;;;;;;40.70;19.23;;;3.60;99.90;;;;;;5103474;28;20286;-80
2021/11/24 03:11:13;;;;;;;41.87;19.60;;;3.60;99.90;;;;;;5103140;28;20178;-81
2021/11/24 03:13:58;;;;;;;38.97;19.87;;;3.60;99.90;;;;;;5086337;28;20207;-81
2021/11/24 03:16:23;;;;;;;43.03;21.37;;;2.50;99.90;;;;;;5106941;28;20198;-79
2021/11/24 03:18:49;;;;;;;42.63;19.63;;;3.60;99.90;;;;;;5109686;28;20183;-79
2021/11/24 03:21:15;;;;;;;40.23;19.70;;;3.60;99.90;;;;;;5110128;28;20272;-79
2021/11/24 03:23:40;;;;;;;39.93;19.60;;;3.60;99.90;;;;;;5106407;28;20183;-80
2021/11/24 03:26:06;;;;;;;42.67;19.83;;;3.60;99.90;;;;;;5112547;28;20184;-80
2021/11/24 03:28:32;;;;;;;43.10;18.77;;;3.60;99.90;;;;;;5118805;28;20170;-87
2021/11/24 03:30:57;;;;;;;39.30;20.37;;;3.60;99.90;;;;;;5102038;28;20175;-80
2021/11/24 03:33:23;;;;;;;45.13;20.47;;;3.60;99.90;;;;;;5117098;28;20191;-81
2021/11/24 03:35:49;;;;;;;45.60;20.70;;;3.60;99.90;;;;;;5104199;28;20181;-81
2021/11/24 03:38:15;;;;;;;42.47;20.00;;;3.60;99.90;;;;;;5099298;28;20182;-80
2021/11/24 03:40:41;;;;;;;36.40;18.93;;;3.70;99.90;;;;;;5105084;28;20194;-79
2021/11/24 03:43:07;;;;;;;38.27;19.20;;;3.70;99.90;;;;;;5118103;28;20203;-79
2021/11/24 03:45:35;;;;;;;39.70;18.90;;;3.70;99.90;;;;;;5118182;28;20210;-80
2021/11/24 03:48:01;;;;;;;42.73;19.53;;;3.70;99.90;;;;;;5118271;28;20201;-80
2021/11/24 03:50:28;;;;;;;38.30;18.13;;;3.60;99.90;;;;;;5102459;28;20244;-80
2021/11/24 03:52:54;;;;;;;35.50;18.20;;;3.60;99.90;;;;;;5095351;28;20205;-80
2021/11/24 03:55:20;;;;;;;41.00;19.47;;;3.70;99.90;;;;;;5097137;28;20576;-80
2021/11/24 03:57:47;;;;;;;33.67;18.07;;;3.70;99.90;;;;;;5094733;28;20185;-80
2021/11/24 04:00:21;;;;;;;31.37;16.53;;;3.70;99.90;;;;;;5094131;28;20572;-80
2021/11/24 04:02:47;;;;;;;33.53;17.23;;;3.70;99.90;;;;;;5095023;28;20540;-81
2021/11/24 04:05:13;;;;;;;29.87;16.27;;;3.70;99.90;;;;;;5094371;28;20178;-82
2021/11/24 04:07:39;;;;;;;41.67;17.77;;;3.70;99.90;;;;;;5094484;28;20181;-81
2021/11/24 04:10:07;;;;;;;32.83;16.83;;;3.80;99.90;;;;;;5094055;28;20318;-81
2021/11/24 04:12:33;;;;;;;33.33;18.07;;;3.80;99.90;;;;;;5092198;28;20689;-81
2021/11/24 04:14:59;;;;;;;33.50;17.57;;;3.80;99.90;;;;;;5093629;28;20262;-82
2021/11/24 04:17:24;;;;;;;31.97;17.33;;;3.80;99.90;;;;;;5093651;28;20267;-81
2021/11/24 04:19:50;;;;;;;32.50;16.67;;;3.80;99.90;;;;;;5093434;28;20231;-81
2021/11/24 04:22:16;;;;;;;33.17;15.97;;;3.80;99.90;;;;;;5093346;28;20186;-80
2021/11/24 04:24:42;;;;;;;35.30;18.47;;;3.80;99.90;;;;;;5092939;28;20178;-81
2021/11/24 04:27:08;;;;;;;33.30;17.33;;;3.80;99.90;;;;;;5093101;28;20177;-81
2021/11/24 04:29:34;;;;;;;38.80;18.37;;;3.80;99.90;;;;;;5093307;28;20183;-81
2021/11/24 04:32:00;;;;;;;38.20;17.83;;;3.80;99.90;;;;;;5092219;28;20182;-81
2021/11/24 04:34:26;;;;;;;35.17;17.20;;;3.80;99.90;;;;;;5093379;28;20179;-80
2021/11/24 04:36:51;;;;;;;31.80;17.37;;;3.80;99.90;;;;;;5093306;28;20675;-80
2021/11/24 04:39:17;;;;;;;33.50;17.00;;;3.80;99.90;;;;;;5093063;28;20213;-81
2021/11/24 04:41:44;;;;;;;34.87;16.83;;;3.80;99.90;;;;;;5093191;28;20208;-81
2021/11/24 04:44:10;;;;;;;31.33;18.17;;;3.80;99.90;;;;;;5075377;28;20183;-80
2021/11/24 04:46:36;;;;;;;164.67;62.30;;;3.90;99.90;;;;;;5093169;28;20231;-80
2021/11/24 04:49:01;;;;;;;44.97;20.07;;;3.90;99.90;;;;;;5093276;28;20591;-81
2021/11/24 04:51:27;;;;;;;37.30;18.63;;;3.90;99.90;;;;;;5093249;28;20181;-80
2021/11/24 04:53:53;;;;;;;38.63;20.50;;;3.90;99.90;;;;;;5091626;28;20207;-80
2021/11/24 04:56:19;;;;;;;40.93;20.97;;;3.90;99.90;;;;;;5093058;28;20199;-80
2021/11/24 05:01:16;;;;;;;38.33;19.90;;;3.80;99.90;;;;;;5093212;28;20306;-80
2021/11/24 05:03:42;;;;;;;36.07;17.73;;;3.90;99.90;;;;;;5072304;28;20282;-83
2021/11/24 05:06:07;;;;;;;35.90;18.67;;;3.90;99.90;;;;;;5092534;28;20180;-81
2021/11/24 05:08:35;;;;;;;36.37;17.60;;;3.90;99.90;;;;;;5091891;28;20616;-81
2021/11/24 05:11:01;;;;;;;34.33;17.00;;;3.90;99.90;;;;;;5087914;28;20591;-80
2021/11/24 05:13:27;;;;;;;34.27;17.67;;;4.00;99.90;;;;;;5087255;28;20181;-79
2021/11/24 05:15:58;;;;;;;35.13;16.97;;;3.90;99.90;;;;;;5066691;28;20184;-81
2021/11/24 05:18:29;;;;;;;38.00;18.47;;;3.90;99.90;;;;;;5083120;28;20227;-79
2021/11/24 05:21:03;;;;;;;34.37;17.73;;;3.90;99.90;;;;;;5088203;28;20212;-79
2021/11/24 05:23:37;;;;;;;53.90;25.63;;;3.90;99.90;;;;;;5089572;28;20582;-79
2021/11/24 05:26:07;;;;;;;38.40;17.97;;;3.90;99.90;;;;;;5089954;28;20179;-79
2021/11/24 05:28:33;;;;;;;43.87;20.37;;;4.00;99.90;;;;;;5087866;28;20657;-79
2021/11/24 05:31:00;;;;;;;43.50;20.20;;;4.00;99.90;;;;;;5086294;28;20193;-79
2021/11/24 05:33:26;;;;;;;36.77;19.40;;;4.00;99.90;;;;;;5085826;28;20265;-79
2021/11/24 05:35:52;;;;;;;36.67;18.20;;;3.90;99.90;;;;;;5090626;28;20221;-79
2021/11/24 05:38:18;;;;;;;28.97;15.13;;;3.90;99.90;;;;;;5095531;28;20649;-79
2021/11/24 05:40:43;;;;;;;31.50;15.40;;;3.90;99.90;;;;;;5095792;28;20252;-78
2021/11/24 05:43:09;;;;;;;34.23;15.33;;;3.90;99.90;;;;;;5094304;28;20190;-78
2021/11/24 05:45:59;;;;;;;32.00;14.53;;;3.90;99.90;;;;;;5094530;28;20634;-79
2021/11/24 05:48:25;;;;;;;33.03;15.43;;;3.90;99.90;;;;;;5096212;28;20231;-79
2021/11/24 05:50:53;;;;;;;39.33;17.23;;;3.90;99.90;;;;;;5086876;28;20249;-81
2021/11/24 05:53:20;;;;;;;72.80;36.50;;;3.90;99.90;;;;;;5094388;28;20187;-80
2021/11/24 05:55:47;;;;;;;31.30;16.70;;;3.90;99.90;;;;;;5093206;28;20187;-81
2021/11/24 05:58:14;;;;;;;31.43;16.73;;;3.90;99.90;;;;;;5095493;28;20294;-80
2021/11/24 06:00:40;;;;;;;32.03;15.93;;;3.90;99.90;;;;;;5096058;28;20238;-81
2021/11/24 06:03:06;;;;;;;27.37;14.43;;;3.90;99.90;;;;;;5086982;28;20191;-81
2021/11/24 06:05:33;;;;;;;31.40;16.33;;;3.90;99.90;;;;;;5094808;28;20455;-81
2021/11/24 06:07:58;;;;;;;31.90;15.30;;;4.00;99.90;;;;;;5095376;28;20178;-81
2021/11/24 06:10:25;;;;;;;32.67;16.57;;;3.90;99.90;;;;;;5095483;28;20194;-82
2021/11/24 06:12:50;;;;;;;31.27;15.50;;;3.90;99.90;;;;;;5095696;28;20631;-82
2021/11/24 06:15:17;;;;;;;31.47;15.63;;;3.90;99.90;;;;;;5095164;28;20196;-83
2021/11/24 06:17:44;;;;;;;32.93;15.77;;;3.90;99.90;;;;;;5091623;28;20195;-80
2021/11/24 06:20:11;;;;;;;31.47;16.30;;;3.90;99.90;;;;;;5084321;28;20287;-81
2021/11/24 06:22:38;;;;;;;33.13;15.60;;;3.90;99.90;;;;;;5083010;28;20193;-81
2021/11/24 06:25:05;;;;;;;30.43;15.60;;;3.90;99.90;;;;;;5083401;28;20216;-81
2021/11/24 06:27:31;;;;;;;26.40;14.30;;;4.00;99.90;;;;;;5090533;28;20537;-80
2021/11/24 06:29:57;;;;;;;24.37;14.07;;;4.10;99.90;;;;;;5075230;28;20189;-80
2021/11/24 06:32:23;;;;;;;29.90;14.63;;;;;;;;;;5074773;28;20177;-81
2021/11/24 06:34:48;;;;;;;32.17;15.53;;;4.10;99.90;;;;;;5090424;28;20180;-81
2021/11/24 06:37:14;;;;;;;30.27;16.80;;;4.00;99.90;;;;;;5094633;28;20182;-81
2021/11/24 06:39:40;;;;;;;28.70;16.13;;;4.00;99.90;;;;;;5093625;28;20188;-81
2021/11/24 06:42:06;;;;;;;31.17;18.60;;;4.10;99.90;;;;;;5093436;28;20548;-82
2021/11/24 06:44:31;;;;;;;34.27;17.33;;;4.00;99.90;;;;;;5094596;28;20182;-84
2021/11/24 06:46:57;;;;;;;30.20;15.17;;;4.00;99.90;;;;;;5093799;28;20196;-81
2021/11/24 06:49:23;;;;;;;32.83;17.10;;;4.10;99.90;;;;;;5094820;28;20241;-80
2021/11/24 06:51:49;;;;;;;33.50;16.43;;;4.20;99.90;;;;;;5093113;28;20546;-84
2021/11/24 06:54:17;;;;;;;30.67;15.10;;;4.10;99.90;;;;;;5092750;28;20517;-80
2021/11/24 06:56:44;;;;;;;29.47;15.03;;;4.10;99.90;;;;;;5093211;28;20177;-80
2021/11/24 06:59:10;;;;;;;30.07;15.53;;;4.00;99.90;;;;;;5093010;28;20186;-80
2021/11/24 07:01:36;;;;;;;28.77;15.37;;;4.20;99.90;;;;;;5094136;28;20275;-80
2021/11/24 07:04:02;;;;;;;20.07;10.53;;;4.20;99.90;;;;;;5093011;28;20641;-80
2021/11/24 07:06:29;;;;;;;32.63;14.33;;;4.20;99.90;;;;;;5093643;28;20198;-81
2021/11/24 07:08:54;;;;;;;30.13;15.67;;;4.20;99.90;;;;;;5091375;28;20570;-81
2021/11/24 07:11:23;;;;;;;31.30;15.23;;;4.20;99.90;;;;;;5094206;28;20239;-81
2021/11/24 07:13:49;;;;;;;40.30;15.63;;;4.20;99.90;;;;;;5094371;28;20182;-83
2021/11/24 07:16:15;;;;;;;30.60;15.37;;;4.20;99.90;;;;;;5093220;28;20544;-81
2021/11/24 07:18:41;;;;;;;28.93;14.37;;;4.20;99.90;;;;;;5093063;28;20233;-79
2021/11/24 07:21:06;;;;;;;25.63;14.73;;;4.10;99.90;;;;;;5093312;28;20676;-81
2021/11/24 07:23:32;;;;;;;24.83;13.17;;;4.20;99.90;;;;;;5094570;28;20185;-81
2021/11/24 07:25:58;;;;;;;25.90;13.37;;;4.20;99.90;;;;;;5094185;28;20255;-81
2021/11/24 07:28:23;;;;;;;27.33;13.30;;;4.20;99.90;;;;;;5092908;28;20202;-81
2021/11/24 07:30:49;;;;;;;28.83;14.23;;;4.30;99.90;;;;;;5094263;28;20200;-82
2021/11/24 07:33:15;;;;;;;26.23;13.97;;;4.30;99.90;;;;;;5094087;28;20185;-80
2021/11/24 07:35:40;;;;;;;28.40;15.03;;;4.30;99.90;;;;;;5093544;28;20249;-80
2021/11/24 07:38:06;;;;;;;26.50;15.13;;;4.30;99.90;;;;;;5093795;28;20174;-80
2021/11/24 07:40:32;;;;;;;26.53;14.37;;;4.30;99.90;;;;;;5093950;28;20200;-81
2021/11/24 07:42:58;;;;;;;30.67;15.33;;;4.30;99.90;;;;;;5093980;28;20606;-81
2021/11/24 07:45:23;;;;;;;21.77;12.27;;;4.30;99.90;;;;;;5094218;28;20191;-81
2021/11/24 07:47:49;;;;;;;27.73;14.57;;;4.30;99.90;;;;;;5094261;28;20253;-81
2021/11/24 07:50:15;;;;;;;23.73;11.83;;;4.30;99.90;;;;;;5093767;28;20237;-81
2021/11/24 07:52:41;;;;;;;23.83;13.73;;;4.40;99.90;;;;;;5092867;28;20547;-81
2021/11/24 07:55:07;;;;;;;28.40;13.80;;;4.40;99.90;;;;;;5092610;28;20183;-81
2021/11/24 07:57:32;;;;;;;23.77;12.20;;;4.40;99.90;;;;;;5092656;28;20236;-81
2021/11/24 07:59:58;;;;;;;24.73;13.37;;;4.40;99.90;;;;;;5091675;28;20600;-81
2021/11/24 08:02:23;;;;;;;23.00;13.47;;;4.40;99.90;;;;;;5092358;28;20599;-81
2021/11/24 08:04:50;;;;;;;26.33;13.83;;;4.40;99.90;;;;;;5094238;28;20603;-81
2021/11/24 08:07:16;;;;;;;30.90;14.83;;;4.40;99.90;;;;;;5092158;28;20196;-81
2021/11/24 08:09:42;;;;;;;30.10;15.07;;;4.40;99.90;;;;;;5093957;28;20316;-81
2021/11/24 08:12:08;;;;;;;28.83;14.23;;;4.50;99.90;;;;;;5093351;28;20210;-81
2021/11/24 08:14:34;;;;;;;29.80;15.47;;;4.50;99.90;;;;;;5093543;28;20178;-82
2021/11/24 08:17:00;;;;;;;28.13;14.43;;;;;;;;;;5075796;28;20514;-81
2021/11/24 08:19:26;;;;;;;33.40;15.23;;;4.50;99.90;;;;;;5093681;28;20621;-81
2021/11/24 08:21:52;;;;;;;29.00;14.07;;;4.60;99.90;;;;;;5093391;28;20204;-81
2021/11/24 08:24:18;;;;;;;30.83;14.93;;;4.60;99.90;;;;;;5092433;28;20518;-81
2021/11/24 08:26:43;;;;;;;32.93;15.73;;;4.60;99.90;;;;;;5080567;28;20304;-82
2021/11/24 08:29:10;;;;;;;35.53;17.07;;;4.50;99.90;;;;;;5082629;28;20634;-82
2021/11/24 08:31:39;;;;;;;30.27;15.07;;;4.60;99.90;;;;;;5081238;28;20187;-82
2021/11/24 08:34:08;;;;;;;35.23;15.17;;;4.60;99.90;;;;;;5088567;28;20178;-81
2021/11/24 08:36:34;;;;;;;27.67;14.10;;;4.60;99.90;;;;;;5091872;28;20186;-80
2021/11/24 08:39:00;;;;;;;29.17;14.97;;;4.70;99.90;;;;;;5093254;28;20174;-81
2021/11/24 08:41:26;;;;;;;37.67;17.43;;;4.70;99.90;;;;;;5092854;28;20294;-81
2021/11/24 08:43:52;;;;;;;31.17;15.83;;;4.70;99.90;;;;;;5093209;28;20182;-81
2021/11/24 08:46:17;;;;;;;30.60;14.63;;;4.70;99.90;;;;;;5071651;28;20185;-81
2021/11/24 08:48:43;;;;;;;37.17;16.93;;;4.80;99.90;;;;;;5077678;28;20194;-81
2021/11/24 08:51:10;;;;;;;44.53;17.33;;;;;;;;;;5088915;28;20277;-81
2021/11/24 08:53:35;;;;;;;43.17;16.87;;;4.80;99.90;;;;;;5078436;28;20181;-81
2021/11/24 08:56:02;;;;;;;31.43;16.47;;;4.70;99.90;;;;;;5082455;28;20639;-82
2021/11/24 08:58:28;;;;;;;36.90;17.27;;;2.90;99.90;;;;;;5089096;28;20182;-81
2021/11/24 09:00:53;;;;;;;29.27;14.73;;;4.70;99.90;;;;;;5092137;28;20244;-81
2021/11/24 09:03:21;;;;;;;25.77;14.10;;;4.80;99.90;;;;;;5075091;28;20187;-82
2021/11/24 09:05:47;;;;;;;24.53;12.43;;;4.80;99.90;;;;;;5070499;28;20198;-81
2021/11/24 09:08:13;;;;;;;21.97;11.80;;;;;;;;;;5075560;28;20178;-83
2021/11/24 09:10:40;;;;;;;22.90;13.60;;;4.80;99.90;;;;;;5088639;28;20261;-81
2021/11/24 09:13:06;;;;;;;22.27;13.00;;;4.80;99.90;;;;;;5094638;28;20185;-82
2021/11/24 09:15:33;;;;;;;24.37;12.93;;;4.80;99.90;;;;;;5083875;28;20177;-81
2021/11/24 09:17:59;;;;;;;21.20;13.67;;;4.90;99.90;;;;;;5075532;28;20641;-81
2021/11/24 09:20:25;;;;;;;23.80;12.37;;;;;;;;;;5088982;28;20218;-83
2021/11/24 09:22:51;;;;;;;23.33;12.27;;;5.00;99.90;;;;;;5094232;28;20191;-84
2021/11/24 09:25:21;;;;;;;23.70;12.17;;;4.90;99.90;;;;;;5095209;28;20603;-83
2021/11/24 09:28:00;;;;;;;20.40;11.97;;;4.90;99.90;;;;;;5095330;28;20400;-89
2021/11/24 09:30:27;;;;;;;21.90;11.97;;;4.90;99.90;;;;;;5075157;28;20193;-84
2021/11/24 09:32:54;;;;;;;22.17;12.60;;;4.80;99.90;;;;;;5075135;28;20181;-84
2021/11/24 09:35:20;;;;;;;18.77;11.97;;;5.00;99.90;;;;;;5074932;28;20186;-81
2021/11/24 09:37:46;;;;;;;18.73;11.37;;;5.00;99.90;;;;;;5073556;28;20202;-83
2021/11/24 09:40:12;;;;;;;22.83;11.90;;;5.10;99.90;;;;;;5075319;28;20660;-82
2021/11/24 09:42:41;;;;;;;19.67;10.83;;;5.10;99.90;;;;;;5073636;28;20545;-82
2021/11/24 09:45:08;;;;;;;20.40;11.57;;;5.00;99.90;;;;;;5092534;28;20189;-81
2021/11/24 09:47:34;;;;;;;17.90;11.23;;;5.10;99.90;;;;;;5090135;28;20194;-82
2021/11/24 09:50:02;;;;;;;17.73;10.97;;;5.20;99.90;;;;;;5081964;28;20715;-81
2021/11/24 09:52:28;;;;;;;18.50;10.23;;;5.20;99.90;;;;;;5080866;28;20182;-82
2021/11/24 09:54:54;;;;;;;19.80;11.43;;;5.00;99.90;;;;;;5086970;28;20175;-82
2021/11/24 09:57:23;;;;;;;22.13;10.27;;;5.20;99.90;;;;;;5085672;28;20189;-83
2021/11/24 09:59:50;;;;;;;16.03;10.03;;;5.10;99.90;;;;;;5093441;28;20182;-82
2021/11/24 10:02:16;;;;;;;20.57;10.73;;;5.10;99.90;;;;;;5083236;28;20199;-82
2021/11/24 10:04:44;;;;;;;25.40;11.80;;;5.20;99.90;;;;;;5083405;28;20183;-82
2021/11/24 10:07:12;;;;;;;13.00;6.67;;;5.30;99.90;;;;;;5086819;28;20250;-82
2021/11/24 10:09:39;;;;;;;19.87;10.10;;;5.40;99.90;;;;;;5099046;28;20224;-82
2021/11/24 10:12:06;;;;;;;20.23;10.60;;;5.50;99.90;;;;;;5100499;28;20162;-82
2021/11/24 10:14:32;;;;;;;18.13;9.93;;;;;;;;;;5099973;28;20189;-82
2021/11/24 10:17:11;;;;;;;17.70;9.60;;;5.40;99.90;;;;;;5100580;28;20169;-81
2021/11/24 10:19:38;;;;;;;19.23;11.40;;;5.40;99.90;;;;;;5089803;28;20226;-82
2021/11/24 10:22:10;;;;;;;20.80;11.53;;;5.50;99.90;;;;;;5087371;28;20274;-82
2021/11/24 10:24:37;;;;;;;18.17;10.83;;;5.50;99.90;;;;;;5093595;28;20182;-83
2021/11/24 10:27:10;;;;;;;18.50;9.67;;;5.50;99.90;;;;;;5100356;28;20177;-82
2021/11/24 10:29:37;;;;;;;17.70;9.70;;;5.60;99.90;;;;;;5099504;28;20173;-84
2021/11/24 10:32:09;;;;;;;23.90;10.83;;;5.50;99.90;;;;;;5099679;28;20300;-82
2021/11/24 10:34:40;;;;;;;14.07;9.03;;;5.50;99.90;;;;;;5075591;28;20248;-82
2021/11/24 10:37:07;;;;;;;14.40;8.90;;;5.40;99.90;;;;;;5057187;28;20179;-82
2021/11/24 10:39:50;;;;;;;15.83;10.00;;;5.50;99.90;;;;;;5075155;28;20168;-81
2021/11/24 10:42:39;;;;;;;19.13;9.70;;;5.60;99.90;;;;;;5075047;28;20191;-93
2021/11/24 10:45:11;;;;;;;17.70;10.07;;;5.60;99.90;;;;;;5075197;28;20179;-81
2021/11/24 10:47:55;;;;;;;17.30;9.43;;;5.70;99.90;;;;;;5074965;28;20258;-82
2021/11/24 10:50:26;;;;;;;17.07;10.10;;;5.60;99.90;;;;;;5075000;28;20175;-82
2021/11/24 10:52:52;;;;;;;16.77;9.50;;;;;;;;;;5075056;28;20178;-82
2021/11/24 10:55:32;;;;;;;19.50;10.83;;;5.70;99.90;;;;;;5074920;28;20179;-92
2021/11/24 10:58:04;;;;;;;20.20;10.67;;;5.70;99.90;;;;;;5074967;28;20208;-82
2021/11/24 11:00:33;;;;;;;17.00;10.50;;;5.80;99.90;;;;;;5073060;28;20213;-85
2021/11/24 11:02:58;;;;;;;18.60;10.73;;;5.80;99.90;;;;;;5074800;28;20186;-83
2021/11/24 11:05:25;;;;;;;21.47;10.60;;;;;;;;;;5073875;28;20186;-83
2021/11/24 11:07:52;;;;;;;15.43;9.20;;;;;;;;;;5081930;28;20214;-81
2021/11/24 11:10:23;;;;;;;15.83;8.97;;;5.50;99.90;;;;;;5094142;28;20222;-81
2021/11/24 11:12:56;;;;;;;13.90;8.13;;;5.60;99.90;;;;;;5094606;28;20178;-81
2021/11/24 11:15:22;;;;;;;17.57;9.00;;;;;;;;;;5093273;28;20178;-83
2021/11/24 11:17:55;;;;;;;20.70;9.93;;;5.60;99.90;;;;;;5093992;28;20187;-81
2021/11/24 11:20:22;;;;;;;16.07;8.90;;;5.70;99.90;;;;;;5093150;28;20566;-81
2021/11/24 11:23:05;;;;;;;17.70;9.90;;;5.40;99.90;;;;;;5093068;28;20227;-81
2021/11/24 11:25:36;;;;;;;18.43;8.07;;;5.70;99.90;;;;;;5073635;28;20233;-82
2021/11/24 11:28:02;;;;;;;17.77;9.37;;;5.60;99.90;;;;;;5073929;28;20635;-82
2021/11/24 11:30:29;;;;;;;17.60;10.23;;;5.60;99.90;;;;;;5073162;28;20237;-82
2021/11/24 11:32:57;;;;;;;18.77;10.13;;;5.70;99.90;;;;;;5074897;28;20181;-81
2021/11/24 11:35:23;;;;;;;14.83;8.13;;;5.70;99.90;;;;;;5073095;28;20720;-81
2021/11/24 11:37:51;;;;;;;17.73;9.63;;;5.70;99.90;;;;;;5073881;28;20179;-82
2021/11/24 11:40:17;;;;;;;14.00;8.67;;;;;;;;;;5073732;28;20218;-81
2021/11/24 11:42:46;;;;;;;22.67;10.13;;;5.70;99.90;;;;;;5072547;28;20186;-81
2021/11/24 11:45:14;;;;;;;22.50;10.23;;;5.80;99.90;;;;;;5073597;28;20538;-82
2021/11/24 11:47:43;;;;;;;20.83;9.77;;;;;;;;;;5073709;28;20179;-84
2021/11/24 11:50:09;;;;;;;16.57;8.57;;;5.70;99.90;;;;;;5073617;28;20269;-82
2021/11/24 11:52:35;;;;;;;23.23;11.00;;;;;;;;;;5085123;28;20738;-81
2021/11/24 11:55:18;;;;;;;17.67;9.63;;;6.00;99.90;;;;;;5093237;28;20186;-81
2021/11/24 11:57:44;;;;;;;18.27;7.93;;;;;;;;;;5091175;28;20268;-82
2021/11/24 12:00:11;;;;;;;16.93;9.70;;;;;;;;;;5093160;28;20723;-82
2021/11/24 12:02:51;;;;;;;17.87;10.47;;;5.80;99.90;;;;;;5092937;28;20183;-81
2021/11/24 12:05:17;;;;;;;19.07;9.33;;;;;;;;;;5090905;28;20179;-84
2021/11/24 12:08:08;;;;;;;19.63;9.80;;;6.00;99.90;;;;;;5093260;28;20182;-81
2021/11/24 12:11:00;;;;;;;19.70;10.60;;;5.80;99.90;;;;;;5090676;28;20298;-82
2021/11/24 12:13:31;;;;;;;19.93;10.93;;;5.40;99.90;;;;;;5092829;28;20202;-82
2021/11/24 12:15:57;;;;;;;12.97;6.77;;;;;;;;;;5092554;28;20180;-82
2021/11/24 12:18:24;;;;;;;15.87;9.07;;;;;;;;;;5086205;28;20195;-81
2021/11/24 12:20:53;;;;;;;24.13;11.50;;;5.50;99.90;;;;;;5084071;28;20308;-82
2021/11/24 12:23:22;;;;;;;17.73;9.90;;;5.50;99.90;;;;;;5082840;28;20185;-81
2021/11/24 12:25:50;;;;;;;22.53;12.07;;;5.50;99.90;;;;;;5080211;28;20189;-81
2021/11/24 12:28:17;;;;;;;23.87;12.70;;;5.60;99.90;;;;;;5083062;28;20634;-82
2021/11/24 12:30:47;;;;;;;23.77;13.27;;;;;;;;;;5081728;28;20644;-81
2021/11/24 12:33:33;;;;;;;18.83;10.43;;;5.50;99.90;;;;;;5084067;28;20328;-81
2021/11/24 12:36:16;;;;;;;16.47;8.97;;;5.10;99.90;;;;;;5091410;28;20647;-81
2021/11/24 12:38:47;;;;;;;16.00;9.10;;;5.50;99.90;;;;;;5090564;28;20677;-83
2021/11/24 12:41:14;;;;;;;19.43;10.30;;;;;;;;;;5090901;28;20680;-81
2021/11/24 12:43:44;;;;;;;20.83;11.03;;;5.40;99.90;;;;;;5089836;28;20209;-82
2021/11/24 12:46:18;;;;;;;21.00;11.87;;;5.40;99.90;;;;;;5091072;28;20235;-82